Trenton Mercer Airport
KTTN : now visible

Airfield :











YOU CAN JOIN US ON...

 
LOGIN :

Register | Disclaimer

   EN    FR    IT 

 









Legend :    VFR   Marginal VFR   IFR   Intensive IFR   Very Intensive IFR
Visi :
Ceiling :
>= 8 km
>= 3000ft
5 to 8 km
1000 to 3000 ft
1500m to 5 km
500 to 1000 ft
800 to 1500m
200 to 500 ft
< 800m
< 200 ft
Symbols :   Thunderstorms  Fog  Heavy snow  Heavy precipitations  Wind > 20 kt






- Airport Elevation : 213 ft
- IATA code : TTN


KTTN - Trenton Mercer

CURRENT METAR :
  • 060953Z AUTO 21004KT 10SM OVC120 00/M04 A3013 RMK AO2 SLP201 T00001044

EXPIRED METARs :
  • 060853Z AUTO 21004KT 10SM OVC120 M01/M04 A3014 RMK AO2 SLP202 T10061044 50003
  • 060753Z AUTO 00000KT 10SM BKN120 M01/M05 A3014 RMK AO2 SLP204 T10061050

TAF KTTN
Valid from the 06 at 06:00 until the 07 at 06:00 UTC


060527Z 0606/0706 29005KT P6SM SCT050
FM060900 VRB02KT P6SM BKN120
FM061400 22008KT P6SM BKN060
FM061800 25011KT P6SM BKN050
FM070000 30010KT P6SM SCT050



MET'MAP, your aeronautical weather chart ! - Copyright ORBIFLY December 2007 - Disclaimer

ORBIFLY MET'MAP TEAM :

Programming & Development : Alexandra Zaïnal
Concept & original design : Baudouin d'Aumeries
Assistance for programming : Marc-Olivier Méhu
Technical & hardware support : Manuel Goepfert

Contact : metmap@orbifly.com




SOURCES & CREDITS :

   NOAA       Earth
Advisory